Time;durP1;ratioP1;P1;durP2;ratioP2;P2;SDS_P1;SDS_P2;PMS_P1;PMS_P2;Temp;Humidity;BMP_temperature;BMP_pressure;BME280_temperature;BME280_humidity;BME280_pressure;Samples;Min_cycle;Max_cycle;Signal;HPM_P1;HPM_P2
2022/09/04 00:01:49;;;;;;;1.97;0.83;;;16.40;99.90;;;;;;5001499;28;20336;-49
2022/09/04 00:04:30;;;;;;;2.00;1.10;;;16.50;99.90;;;;;;5001954;28;21128;-50
2022/09/04 00:07:07;;;;;;;2.20;0.90;;;16.50;99.90;;;;;;4996563;28;20225;-47
2022/09/04 00:09:43;;;;;;;1.43;1.00;;;16.50;99.90;;;;;;4997301;28;20237;-49
2022/09/04 00:12:11;;;;;;;1.40;1.00;;;16.50;99.90;;;;;;5001340;28;20783;-47
2022/09/04 00:14:45;;;;;;;1.60;1.00;;;16.50;99.90;;;;;;4999612;28;20229;-49
2022/09/04 00:17:19;;;;;;;1.40;0.80;;;16.50;99.90;;;;;;5002410;28;20233;-50
2022/09/04 00:19:52;;;;;;;2.20;1.20;;;16.40;99.90;;;;;;4998825;28;20228;-47
2022/09/04 00:22:29;;;;;;;1.77;1.20;;;16.40;99.90;;;;;;5001130;28;20229;-48
2022/09/04 00:25:07;;;;;;;2.10;1.00;;;16.40;99.90;;;;;;5002699;28;20242;-48
2022/09/04 00:27:43;;;;;;;4.10;1.10;;;16.30;99.90;;;;;;5003788;28;20257;-48
2022/09/04 00:30:16;;;;;;;3.40;1.07;;;16.40;99.90;;;;;;4999547;28;20260;-50
2022/09/04 00:32:50;;;;;;;1.73;0.93;;;16.40;99.90;;;;;;5002942;28;20304;-51
2022/09/04 00:35:22;;;;;;;1.13;0.70;;;16.40;99.90;;;;;;5006512;28;20327;-49
2022/09/04 00:37:58;;;;;;;0.93;0.80;;;16.40;99.90;;;;;;5004823;28;20305;-48
2022/09/04 00:40:29;;;;;;;0.80;0.80;;;16.40;99.90;;;;;;5002145;28;20780;-49
2022/09/04 00:43:24;;;;;;;1.83;1.10;;;16.40;99.90;;;;;;5004754;28;20248;-48
2022/09/04 00:46:13;;;;;;;3.03;1.13;;;16.40;99.90;;;;;;4992257;28;20243;-50
2022/09/04 00:49:11;;;;;;;2.63;1.00;;;16.40;99.90;;;;;;4993919;28;20263;-50
2022/09/04 00:51:46;;;;;;;3.70;1.10;;;16.30;99.90;;;;;;5000415;28;20733;-48
2022/09/04 00:54:34;;;;;;;1.40;0.93;;;16.20;99.90;;;;;;5005158;28;20649;-49
2022/09/04 00:57:43;;;;;;;3.03;1.13;;;16.20;99.90;;;;;;5004457;28;20232;-50
2022/09/04 01:00:14;;;;;;;1.23;1.03;;;16.10;99.90;;;;;;5001610;28;20237;-47
2022/09/04 01:03:04;;;;;;;2.37;1.20;;;16.10;99.90;;;;;;5004164;28;20241;-49
2022/09/04 01:05:44;;;;;;;1.20;0.93;;;16.10;99.90;;;;;;5002871;28;20244;-48
2022/09/04 01:08:23;;;;;;;2.67;1.10;;;16.10;99.90;;;;;;5003888;28;20291;-48
2022/09/04 01:11:05;;;;;;;1.63;1.27;;;16.10;99.90;;;;;;5005001;28;20699;-47
2022/09/04 01:13:40;;;;;;;1.10;1.00;;;16.10;99.90;;;;;;5004519;28;20221;-49
2022/09/04 01:16:13;;;;;;;1.43;1.20;;;16.10;99.90;;;;;;5004429;28;20236;-49
2022/09/04 01:18:51;;;;;;;1.27;1.00;;;16.00;99.90;;;;;;4998989;28;20311;-48
2022/09/04 01:21:55;;;;;;;2.03;1.10;;;16.10;99.90;;;;;;4991232;28;20268;-50
2022/09/04 01:24:46;;;;;;;1.57;1.07;;;16.00;99.90;;;;;;4987247;28;20237;-49
2022/09/04 01:27:21;;;;;;;2.00;1.13;;;16.00;99.90;;;;;;5003627;28;20237;-50
2022/09/04 01:29:58;;;;;;;1.37;1.03;;;16.00;99.90;;;;;;5002418;28;20233;-48
2022/09/04 01:32:39;;;;;;;1.53;1.03;;;16.00;99.90;;;;;;5002020;28;20264;-50
2022/09/04 01:35:17;;;;;;;1.03;0.90;;;15.90;99.90;;;;;;5003627;28;20229;-47
2022/09/04 01:37:57;;;;;;;1.53;1.37;;;16.00;99.90;;;;;;5003059;28;20309;-50
2022/09/04 01:40:36;;;;;;;1.13;0.90;;;15.90;99.90;;;;;;5003602;28;20225;-47
2022/09/04 01:43:11;;;;;;;1.67;1.20;;;15.90;99.90;;;;;;5002926;28;20245;-49
2022/09/04 01:46:14;;;;;;;1.77;0.73;;;15.90;99.90;;;;;;5004636;28;20244;-48
2022/09/04 01:48:49;;;;;;;2.37;1.00;;;15.90;99.90;;;;;;5001353;28;21132;-50
2022/09/04 01:51:25;;;;;;;1.83;1.10;;;15.90;99.90;;;;;;5003806;28;20239;-48
2022/09/04 01:54:11;;;;;;;2.60;0.83;;;15.90;99.90;;;;;;5003590;28;20747;-49
2022/09/04 01:56:45;;;;;;;2.47;1.20;;;15.90;99.90;;;;;;5003819;28;20239;-50
2022/09/04 01:59:26;;;;;;;3.10;1.00;;;15.90;99.90;;;;;;5002346;28;20223;-50
2022/09/04 02:02:00;;;;;;;2.23;1.03;;;15.90;99.90;;;;;;5004311;28;20248;-49
2022/09/04 02:04:36;;;;;;;2.07;0.90;;;15.90;99.90;;;;;;5004021;28;20233;-49
2022/09/04 02:07:14;;;;;;;3.00;1.10;;;15.90;99.90;;;;;;5003270;28;20238;-50
2022/09/04 02:09:51;;;;;;;1.27;0.93;;;15.90;99.90;;;;;;5001938;28;20229;-49
2022/09/04 02:12:30;;;;;;;1.00;0.90;;;15.90;99.90;;;;;;5002975;28;20294;-48
2022/09/04 02:15:08;;;;;;;1.53;1.00;;;15.90;99.90;;;;;;5002188;28;20562;-51
2022/09/04 02:17:44;;;;;;;2.27;0.90;;;15.90;99.90;;;;;;5003770;28;20229;-49
2022/09/04 02:20:23;;;;;;;3.40;1.10;;;15.80;99.90;;;;;;5002438;28;20252;-48
2022/09/04 02:23:03;;;;;;;1.90;1.07;;;15.70;99.90;;;;;;5002816;28;20233;-50
2022/09/04 02:25:38;;;;;;;1.60;1.03;;;15.80;99.90;;;;;;5003058;28;20237;-47
2022/09/04 02:28:19;;;;;;;1.17;0.90;;;15.70;99.90;;;;;;5000958;28;20724;-48
2022/09/04 02:30:54;;;;;;;2.13;1.10;;;15.70;99.90;;;;;;5002903;28;20245;-47
2022/09/04 02:33:30;;;;;;;1.53;1.13;;;15.80;99.90;;;;;;5003464;28;20242;-48
2022/09/04 02:36:04;;;;;;;1.90;1.23;;;15.70;99.90;;;;;;5001251;28;20256;-48
2022/09/04 02:38:42;;;;;;;1.90;1.03;;;15.70;99.90;;;;;;5002506;28;20320;-49
2022/09/04 02:41:16;;;;;;;1.00;0.90;;;15.70;99.90;;;;;;5003357;28;20245;-48
2022/09/04 02:44:03;;;;;;;0.87;0.70;;;15.70;99.90;;;;;;5002917;28;20313;-47
2022/09/04 02:46:39;;;;;;;2.57;1.10;;;15.70;99.90;;;;;;5003316;28;20715;-48
2022/09/04 02:49:24;;;;;;;1.67;1.00;;;15.60;99.90;;;;;;4999514;28;20241;-48
2022/09/04 02:52:03;;;;;;;1.10;1.00;;;15.70;99.90;;;;;;5001175;28;20356;-49
2022/09/04 02:54:44;;;;;;;1.60;0.87;;;15.60;99.90;;;;;;5000978;28;20238;-48
2022/09/04 02:57:26;;;;;;;2.30;1.10;;;15.60;99.90;;;;;;5001533;28;20240;-47
2022/09/04 03:00:04;;;;;;;1.43;1.00;;;15.60;99.90;;;;;;5001055;28;20245;-50
2022/09/04 03:02:41;;;;;;;1.63;1.13;;;15.50;99.90;;;;;;5001081;28;20245;-50
2022/09/04 03:05:20;;;;;;;3.93;1.27;;;15.50;99.90;;;;;;5002158;28;20239;-48
2022/09/04 03:07:58;;;;;;;2.00;0.93;;;15.60;99.90;;;;;;5001139;28;20238;-50
2022/09/04 03:10:33;;;;;;;1.63;1.10;;;15.60;99.90;;;;;;4999629;28;20311;-48
2022/09/04 03:13:09;;;;;;;1.53;0.90;;;15.50;99.90;;;;;;5000694;28;20237;-48
2022/09/04 03:15:43;;;;;;;1.90;0.87;;;15.50;99.90;;;;;;5000253;28;20300;-47
2022/09/04 03:18:19;;;;;;;3.30;1.00;;;15.50;99.90;;;;;;4997928;28;20249;-49
2022/09/04 03:20:52;;;;;;;2.33;0.90;;;15.50;99.90;;;;;;4998260;28;20704;-47
2022/09/04 03:23:24;;;;;;;1.70;1.00;;;15.50;99.90;;;;;;5002415;28;20727;-48
2022/09/04 03:26:06;;;;;;;3.40;1.20;;;15.50;99.90;;;;;;4999108;28;20267;-47
2022/09/04 03:28:45;;;;;;;2.70;0.93;;;15.50;99.90;;;;;;4999704;28;20237;-47
2022/09/04 03:31:26;;;;;;;1.17;1.03;;;15.50;99.90;;;;;;5001488;28;20323;-48
2022/09/04 03:34:07;;;;;;;4.03;1.27;;;15.50;99.90;;;;;;4999282;28;20311;-47
2022/09/04 03:36:47;;;;;;;1.93;1.00;;;15.50;99.90;;;;;;4998920;28;20296;-49
2022/09/04 03:39:22;;;;;;;2.43;1.20;;;15.40;99.90;;;;;;4999940;28;20640;-47
2022/09/04 03:41:58;;;;;;;2.70;1.30;;;15.40;99.90;;;;;;5000800;28;21027;-48
2022/09/04 03:44:36;;;;;;;1.90;1.07;;;15.40;99.90;;;;;;5001773;28;20323;-50
2022/09/04 03:47:14;;;;;;;1.97;1.00;;;15.30;99.90;;;;;;4999621;28;20949;-47
2022/09/04 03:49:56;;;;;;;3.00;1.10;;;15.30;99.90;;;;;;4997850;28;20315;-48
2022/09/04 03:52:33;;;;;;;2.37;1.10;;;15.30;99.90;;;;;;4998774;28;20226;-48
2022/09/04 03:55:28;;;;;;;2.50;1.00;;;15.30;99.90;;;;;;4999288;28;20233;-47
2022/09/04 03:58:09;;;;;;;1.10;1.00;;;15.30;99.90;;;;;;5000162;28;20229;-48
2022/09/04 04:00:46;;;;;;;2.37;1.40;;;15.30;99.90;;;;;;4999472;28;20230;-48
2022/09/04 04:03:36;;;;;;;1.80;1.20;;;15.30;99.90;;;;;;5001397;28;20716;-50
2022/09/04 04:06:23;;;;;;;1.67;1.00;;;15.30;99.90;;;;;;5001011;28;20724;-47
2022/09/04 04:09:33;;;;;;;2.33;0.93;;;15.20;99.90;;;;;;5000348;28;20574;-47
2022/09/04 04:12:17;;;;;;;0.97;0.90;;;15.20;99.90;;;;;;4975586;28;20233;-47
2022/09/04 04:15:00;;;;;;;1.47;1.10;;;15.20;99.90;;;;;;5001710;28;21476;-48
2022/09/04 04:18:01;;;;;;;1.30;1.00;;;15.20;99.90;;;;;;5001671;28;21610;-47
2022/09/04 04:20:40;;;;;;;1.87;1.00;;;15.20;99.90;;;;;;5000927;28;20225;-48
2022/09/04 04:23:47;;;;;;;1.23;1.00;;;15.20;99.90;;;;;;5000185;28;20228;-47
2022/09/04 04:26:21;;;;;;;1.10;1.00;;;15.20;99.90;;;;;;5000195;28;20308;-50
2022/09/04 04:29:24;;;;;;;1.83;1.03;;;15.10;99.90;;;;;;5000080;28;21427;-48
2022/09/04 04:32:12;;;;;;;0.90;0.90;;;15.10;99.90;;;;;;5012837;28;20287;-48
2022/09/04 04:34:49;;;;;;;3.37;1.20;;;15.10;99.90;;;;;;5010491;28;20316;-47
2022/09/04 04:37:25;;;;;;;2.20;0.97;;;15.10;99.90;;;;;;5014582;28;21262;-49
2022/09/04 04:40:02;;;;;;;1.33;1.00;;;15.10;99.90;;;;;;5009584;28;20223;-47
2022/09/04 04:42:36;;;;;;;2.10;1.10;;;15.00;99.90;;;;;;5014655;28;20276;-47
2022/09/04 04:48:36;;;;;;;2.53;1.10;;;15.00;99.90;;;;;;5013944;28;20709;-50
2022/09/04 04:51:18;;;;;;;2.63;1.10;;;15.10;99.90;;;;;;5009336;28;20237;-47
2022/09/04 04:53:55;;;;;;;1.77;1.30;;;15.10;99.90;;;;;;5011970;28;20235;-49
2022/09/04 04:56:32;;;;;;;3.13;1.00;;;15.00;99.90;;;;;;5016085;28;20243;-49
2022/09/04 04:59:08;;;;;;;2.27;1.20;;;15.00;99.90;;;;;;5009971;28;20242;-48
2022/09/04 05:01:44;;;;;;;2.47;1.27;;;15.00;99.90;;;;;;5006085;28;20228;-47
2022/09/04 05:04:22;;;;;;;1.10;1.00;;;15.00;99.90;;;;;;5000971;28;20221;-50
2022/09/04 05:06:56;;;;;;;4.20;1.30;;;15.00;99.90;;;;;;4996663;28;20302;-49
2022/09/04 05:09:35;;;;;;;2.87;1.13;;;15.10;99.90;;;;;;4992880;28;20772;-47
2022/09/04 05:12:13;;;;;;;2.83;1.20;;;15.10;99.90;;;;;;4999997;28;20226;-49
2022/09/04 05:14:50;;;;;;;3.23;1.30;;;15.10;99.90;;;;;;4999745;28;20245;-46
2022/09/04 05:17:26;;;;;;;3.17;1.13;;;15.20;99.90;;;;;;5004626;28;20237;-49
2022/09/04 05:20:22;;;;;;;1.27;1.00;;;15.20;99.90;;;;;;5003016;28;20611;-49
2022/09/04 05:22:57;;;;;;;1.57;1.20;;;15.20;99.90;;;;;;5005126;28;20233;-47
2022/09/04 05:25:32;;;;;;;1.60;1.23;;;15.30;99.90;;;;;;5003246;28;21053;-48
2022/09/04 05:28:12;;;;;;;1.17;1.03;;;15.40;99.90;;;;;;5002022;28;20233;-48
2022/09/04 05:30:47;;;;;;;2.60;1.37;;;15.40;99.90;;;;;;5002846;28;21340;-49
2022/09/04 05:33:22;;;;;;;1.60;1.10;;;15.40;99.90;;;;;;5004032;28;20639;-47
2022/09/04 05:36:00;;;;;;;1.30;1.03;;;15.40;99.90;;;;;;5002708;28;20653;-49
2022/09/04 05:38:35;;;;;;;3.10;1.20;;;15.50;99.90;;;;;;5002888;28;20236;-46
2022/09/04 05:41:06;;;;;;;2.40;1.20;;;15.60;99.90;;;;;;5003172;28;20240;-47
2022/09/04 05:43:53;;;;;;;1.53;1.17;;;15.60;99.90;;;;;;5003805;28;20262;-48
2022/09/04 05:46:35;;;;;;;4.77;1.23;;;15.70;99.90;;;;;;5004380;28;20800;-47
2022/09/04 05:49:14;;;;;;;1.13;1.03;;;15.80;99.90;;;;;;5003279;28;20331;-47
2022/09/04 05:52:25;;;;;;;1.90;1.27;;;16.00;99.90;;;;;;5000228;28;20230;-50
2022/09/04 05:55:31;;;;;;;1.93;1.23;;;16.00;99.90;;;;;;4997452;28;20328;-48
2022/09/04 05:58:18;;;;;;;4.53;1.37;;;16.10;99.90;;;;;;5002048;28;20321;-49
2022/09/04 06:01:01;;;;;;;1.50;1.23;;;16.20;99.90;;;;;;4996252;28;20260;-49
2022/09/04 06:03:52;;;;;;;1.50;1.20;;;16.30;99.90;;;;;;4999177;28;20229;-50
2022/09/04 06:06:22;;;;;;;1.30;1.20;;;16.40;99.90;;;;;;4997622;28;20721;-47
2022/09/04 06:09:10;;;;;;;1.40;1.23;;;16.60;99.90;;;;;;4995327;28;20229;-48
2022/09/04 06:11:59;;;;;;;3.27;1.10;;;16.70;99.90;;;;;;5002330;28;20233;-47
2022/09/04 06:14:55;;;;;;;3.47;1.10;;;16.80;99.90;;;;;;5003570;28;20233;-50
2022/09/04 06:17:37;;;;;;;1.67;1.40;;;17.00;99.90;;;;;;5002487;28;20240;-49
2022/09/04 06:20:37;;;;;;;1.67;1.20;;;17.00;99.90;;;;;;4999589;28;21244;-48
2022/09/04 06:23:31;;;;;;;2.27;1.10;;;17.00;99.90;;;;;;4997992;28;20225;-47
2022/09/04 06:26:20;;;;;;;3.30;1.30;;;17.10;99.90;;;;;;5001056;28;20698;-47
2022/09/04 06:29:05;;;;;;;2.97;1.60;;;17.30;99.90;;;;;;4998634;28;20289;-50
2022/09/04 06:31:53;;;;;;;1.73;1.40;;;17.40;99.90;;;;;;4995923;28;20234;-50
2022/09/04 06:34:34;;;;;;;2.80;1.40;;;17.50;99.90;;;;;;4999799;28;20603;-47
2022/09/04 06:37:14;;;;;;;3.00;1.30;;;17.70;99.90;;;;;;4998611;28;20234;-51
2022/09/04 06:39:59;;;;;;;3.17;1.20;;;17.70;99.90;;;;;;4994191;28;20229;-49
2022/09/04 06:42:44;;;;;;;1.37;1.00;;;17.90;99.90;;;;;;4996566;28;20246;-50
2022/09/04 06:45:21;;;;;;;2.63;1.40;;;18.10;99.90;;;;;;4995396;28;20320;-48
2022/09/04 06:48:01;;;;;;;1.30;1.10;;;18.30;99.90;;;;;;4995340;28;20341;-47
2022/09/04 06:50:42;;;;;;;2.80;1.30;;;18.50;99.90;;;;;;4995463;28;20246;-49
2022/09/04 06:53:37;;;;;;;2.77;1.30;;;18.60;99.90;;;;;;4995950;28;20227;-49
2022/09/04 06:56:41;;;;;;;2.60;1.20;;;18.70;99.90;;;;;;5000864;28;20237;-48
2022/09/04 06:59:32;;;;;;;2.30;1.40;;;18.90;99.90;;;;;;5001305;28;20321;-52
2022/09/04 07:02:12;;;;;;;1.93;1.27;;;19.00;99.90;;;;;;5001597;28;20242;-50
2022/09/04 07:04:54;;;;;;;1.20;1.07;;;19.20;99.90;;;;;;5002835;28;20245;-50
2022/09/04 07:07:32;;;;;;;3.17;1.47;;;19.40;99.90;;;;;;5002243;28;20284;-49
2022/09/04 07:10:06;;;;;;;1.53;1.10;;;19.50;99.90;;;;;;4998899;28;20239;-49
2022/09/04 07:13:12;;;;;;;2.07;1.13;;;19.70;99.90;;;;;;5002073;28;20579;-48
2022/09/04 07:16:20;;;;;;;3.53;1.50;;;19.90;99.90;;;;;;5004379;28;20231;-48
2022/09/04 07:19:17;;;;;;;2.10;1.90;;;20.00;99.90;;;;;;4991319;28;20233;-47
2022/09/04 07:21:55;;;;;;;1.47;1.20;;;20.30;99.90;;;;;;5001151;28;20238;-48
2022/09/04 07:24:48;;;;;;;2.67;1.40;;;20.60;99.90;;;;;;5003386;28;20237;-50
2022/09/04 07:27:27;;;;;;;3.10;1.67;;;20.80;99.90;;;;;;5002988;28;20251;-47
2022/09/04 07:30:01;;;;;;;2.63;1.53;;;20.90;99.90;;;;;;5001528;28;20335;-49
2022/09/04 07:32:36;;;;;;;2.40;1.33;;;21.00;99.90;;;;;;5001809;28;20234;-50
2022/09/04 07:35:11;;;;;;;3.93;1.60;;;21.00;99.90;;;;;;5001819;28;20232;-50
2022/09/04 07:37:48;;;;;;;5.50;1.70;;;21.00;99.90;;;;;;5002759;28;20232;-50
2022/09/04 07:40:23;;;;;;;2.10;1.40;;;21.10;99.90;;;;;;5002675;28;20254;-49
2022/09/04 07:43:04;;;;;;;4.10;1.60;;;21.20;99.90;;;;;;5002976;28;20249;-48
2022/09/04 07:45:36;;;;;;;3.30;1.50;;;21.30;99.90;;;;;;5003018;28;20240;-48
2022/09/04 07:48:17;;;;;;;2.47;1.77;;;21.50;99.90;;;;;;5000510;28;21254;-48
2022/09/04 07:51:02;;;;;;;4.80;1.90;;;21.50;99.90;;;;;;5002400;28;20240;-47
2022/09/04 07:53:46;;;;;;;3.37;1.80;;;21.50;99.90;;;;;;5002861;28;20290;-47
2022/09/04 07:56:25;;;;;;;2.40;1.97;;;21.60;99.90;;;;;;5002835;28;20269;-51
2022/09/04 07:59:24;;;;;;;2.50;1.80;;;21.70;99.90;;;;;;5000868;28;20307;-49
2022/09/04 08:02:18;;;;;;;4.23;1.83;;;21.90;99.90;;;;;;5002552;28;20716;-48
2022/09/04 08:05:19;;;;;;;2.53;1.70;;;21.80;99.90;;;;;;5002908;28;20236;-49
2022/09/04 08:08:06;;;;;;;3.10;1.90;;;21.80;99.90;;;;;;4998081;28;20264;-48
2022/09/04 08:10:41;;;;;;;5.20;2.13;;;22.10;99.90;;;;;;5000022;28;21328;-48
2022/09/04 08:13:27;;;;;;;2.23;1.90;;;22.30;99.90;;;;;;5002321;28;20250;-51
2022/09/04 08:16:06;;;;;;;4.00;1.93;;;22.60;99.90;;;;;;5001167;28;20229;-48
2022/09/04 08:19:00;;;;;;;3.20;1.77;;;22.50;99.90;;;;;;5001432;28;20240;-50
2022/09/04 08:21:33;;;;;;;3.17;1.80;;;22.70;99.90;;;;;;5002003;28;20765;-50
2022/09/04 08:24:32;;;;;;;3.70;2.00;;;22.90;99.90;;;;;;5001326;28;20284;-49
2022/09/04 08:27:10;;;;;;;2.07;1.87;;;23.00;99.90;;;;;;5000171;28;20248;-49
2022/09/04 08:29:56;;;;;;;3.00;2.20;;;23.20;99.90;;;;;;5000068;28;20589;-51
2022/09/04 08:32:56;;;;;;;2.47;2.17;;;23.30;99.90;;;;;;5001469;28;20237;-50
2022/09/04 08:35:28;;;;;;;3.40;2.00;;;23.50;99.90;;;;;;5001852;28;20355;-51
2022/09/04 08:38:19;;;;;;;4.03;1.90;;;23.50;99.90;;;;;;5001768;28;20709;-52
2022/09/04 08:41:19;;;;;;;2.27;2.00;;;23.50;99.90;;;;;;5001941;28;20336;-53
2022/09/04 08:44:19;;;;;;;3.13;2.10;;;23.50;99.90;;;;;;4998289;28;20728;-51
2022/09/04 08:47:34;;;;;;;3.53;2.00;;;23.60;99.90;;;;;;4996610;28;20704;-53
2022/09/04 08:50:26;;;;;;;3.07;1.90;;;23.50;99.90;;;;;;4968746;28;20246;-50
2022/09/04 08:53:32;;;;;;;2.93;2.27;;;23.80;99.90;;;;;;4995195;28;20301;-51
2022/09/04 08:56:19;;;;;;;3.50;2.20;;;24.10;99.90;;;;;;4999041;28;20355;-51
2022/09/04 08:59:24;;;;;;;4.47;2.00;;;24.40;99.90;;;;;;5002236;28;20241;-52
2022/09/04 09:02:29;;;;;;;3.30;2.10;;;24.40;99.90;;;;;;5004788;28;20240;-53
2022/09/04 09:05:42;;;;;;;2.57;2.20;;;24.40;99.90;;;;;;5005270;28;20229;-52
2022/09/04 09:08:38;;;;;;;5.70;2.20;;;24.80;99.90;;;;;;5003812;28;20228;-52
2022/09/04 09:11:42;;;;;;;2.93;1.90;;;24.90;99.90;;;;;;5002859;28;20242;-52
2022/09/04 09:14:37;;;;;;;2.60;2.03;;;25.00;99.90;;;;;;5000835;28;20693;-52
2022/09/04 09:17:12;;;;;;;5.00;2.13;;;25.10;99.90;;;;;;4997350;28;20336;-54
2022/09/04 09:19:59;;;;;;;4.13;2.10;;;25.10;99.90;;;;;;4995938;28;20233;-53
2022/09/04 09:22:38;;;;;;;2.90;2.10;;;25.30;99.90;;;;;;5002764;28;20242;-53
2022/09/04 09:25:19;;;;;;;2.33;2.10;;;25.20;99.90;;;;;;4997020;28;20234;-50
2022/09/04 09:28:29;;;;;;;2.77;2.00;;;25.10;99.90;;;;;;4997617;28;20257;-52
2022/09/04 09:31:37;;;;;;;2.47;2.00;;;25.30;99.90;;;;;;4996073;28;20678;-53
2022/09/04 09:34:32;;;;;;;3.27;2.10;;;25.40;99.90;;;;;;4984697;28;20650;-52
2022/09/04 09:37:26;;;;;;;3.13;2.00;;;25.60;99.90;;;;;;4998679;28;20274;-52
2022/09/04 09:40:31;;;;;;;5.17;2.53;;;25.70;99.90;;;;;;5002134;28;20239;-53
2022/09/04 09:43:25;;;;;;;4.73;2.30;;;25.90;99.90;;;;;;4996871;28;20790;-52
2022/09/04 09:46:26;;;;;;;3.43;2.30;;;25.80;99.90;;;;;;4999776;28;20352;-52
2022/09/04 09:49:27;;;;;;;2.67;2.17;;;25.80;99.90;;;;;;5001513;28;20267;-53
2022/09/04 09:52:27;;;;;;;6.83;2.23;;;25.70;99.90;;;;;;4995934;28;20247;-51
2022/09/04 09:55:48;;;;;;;3.43;2.13;;;26.00;99.90;;;;;;4999631;28;20245;-52
2022/09/04 09:58:36;;;;;;;3.87;2.13;;;26.20;99.90;;;;;;4946972;28;20244;-52
2022/09/04 10:01:21;;;;;;;3.23;2.60;;;26.00;99.90;;;;;;4958155;28;20236;-53
2022/09/04 10:04:36;;;;;;;4.37;2.47;;;25.60;99.90;;;;;;4989267;28;20245;-52
2022/09/04 10:07:47;;;;;;;3.23;2.33;;;25.70;99.90;;;;;;4996998;28;20241;-53
2022/09/04 10:10:54;;;;;;;2.53;2.23;;;25.80;99.90;;;;;;4997764;28;20234;-52
2022/09/04 10:13:48;;;;;;;2.80;2.13;;;25.80;99.90;;;;;;4996249;28;20270;-53
2022/09/04 10:16:49;;;;;;;2.50;2.30;;;25.90;99.90;;;;;;4997204;28;20249;-53
2022/09/04 10:19:50;;;;;;;4.97;2.20;;;26.00;99.90;;;;;;4998870;28;20321;-54
2022/09/04 10:22:48;;;;;;;3.73;2.30;;;26.10;99.90;;;;;;5001893;28;20318;-52
2022/09/04 10:25:58;;;;;;;2.97;2.30;;;26.10;99.90;;;;;;5002441;28;20779;-53
2022/09/04 10:29:10;;;;;;;3.47;2.33;;;26.30;99.90;;;;;;4972114;28;20259;-53
2022/09/04 10:32:09;;;;;;;4.00;2.47;;;26.30;99.90;;;;;;5013669;28;20234;-53
2022/09/04 10:35:00;;;;;;;2.63;2.40;;;26.10;99.90;;;;;;5004044;28;20236;-54
2022/09/04 10:37:43;;;;;;;2.77;2.30;;;26.10;99.70;;;;;;5013065;28;21195;-53
2022/09/04 10:40:34;;;;;;;3.93;2.30;;;25.90;99.90;;;;;;5013034;28;20313;-53
2022/09/04 10:43:29;;;;;;;2.60;2.30;;;26.00;99.90;;;;;;5011295;28;20254;-54
2022/09/04 10:46:05;;;;;;;3.23;2.40;;;26.40;99.90;;;;;;5014852;28;20705;-51
2022/09/04 10:49:00;;;;;;;2.93;2.20;;;26.50;99.30;;;;;;5013060;28;20254;-54
2022/09/04 10:52:06;;;;;;;2.90;2.17;;;26.50;98.80;;;;;;4991822;28;20771;-52
2022/09/04 10:55:16;;;;;;;4.90;2.67;;;26.50;99.30;;;;;;5015987;28;20230;-53
2022/09/04 10:57:58;;;;;;;4.60;2.30;;;26.50;99.00;;;;;;5012060;28;20231;-54
2022/09/04 11:00:35;;;;;;;3.70;2.30;;;26.90;98.80;;;;;;5009460;28;20255;-54
2022/09/04 11:03:49;;;;;;;2.63;2.23;;;26.90;98.60;;;;;;5004893;28;20238;-52
2022/09/04 11:06:45;;;;;;;4.00;2.00;;;27.00;98.60;;;;;;4983536;28;20327;-54
2022/09/04 11:09:33;;;;;;;3.30;2.03;;;26.70;98.70;;;;;;5000412;28;20225;-53
2022/09/04 11:12:33;;;;;;;5.23;2.20;;;26.90;98.90;;;;;;5003154;28;20244;-50
2022/09/04 11:15:27;;;;;;;4.37;2.40;;;27.10;98.20;;;;;;4998520;28;20232;-53
2022/09/04 11:18:16;;;;;;;4.40;2.33;;;27.10;98.30;;;;;;5003575;28;20255;-52
2022/09/04 11:21:20;;;;;;;2.40;2.13;;;27.20;98.10;;;;;;5002050;28;20327;-53
2022/09/04 11:24:22;;;;;;;3.17;2.40;;;26.70;98.60;;;;;;5002964;28;20239;-54
2022/09/04 11:27:19;;;;;;;2.67;2.47;;;26.70;98.80;;;;;;5002027;28;20292;-54
2022/09/04 11:29:58;;;;;;;3.80;2.60;;;26.50;98.70;;;;;;4998128;28;20239;-53
2022/09/04 11:32:51;;;;;;;4.53;2.60;;;26.20;99.00;;;;;;5003870;28;20716;-53
2022/09/04 11:35:53;;;;;;;4.43;2.50;;;26.20;99.30;;;;;;5004346;28;20228;-53
2022/09/04 11:38:43;;;;;;;5.50;2.77;;;26.50;98.90;;;;;;5000352;28;20244;-52
2022/09/04 11:41:43;;;;;;;3.43;2.67;;;26.80;98.30;;;;;;5004262;28;20222;-53
2022/09/04 11:44:45;;;;;;;3.27;2.33;;;27.10;98.40;;;;;;5004982;28;20229;-52
2022/09/04 11:47:46;;;;;;;3.47;2.30;;;27.20;97.60;;;;;;5004410;28;20231;-54
2022/09/04 11:50:27;;;;;;;2.40;2.20;;;27.20;97.40;;;;;;4999271;28;20655;-52
2022/09/04 11:53:23;;;;;;;2.30;2.10;;;27.10;97.40;;;;;;5003541;28;20705;-54
2022/09/04 11:56:19;;;;;;;3.17;2.27;;;27.00;97.80;;;;;;5003848;28;20712;-54
2022/09/04 11:59:14;;;;;;;2.53;2.30;;;27.30;97.60;;;;;;5000794;28;20244;-54
2022/09/04 12:02:06;;;;;;;5.60;2.27;;;27.10;97.80;;;;;;4999098;28;20260;-52
2022/09/04 12:04:48;;;;;;;2.43;2.03;;;27.10;97.50;;;;;;5001934;28;20233;-53
2022/09/04 12:07:33;;;;;;;3.73;2.20;;;26.80;97.30;;;;;;5001125;28;20319;-52
2022/09/04 12:10:28;;;;;;;3.40;2.30;;;26.70;98.10;;;;;;4999951;28;20330;-54
2022/09/04 12:13:13;;;;;;;4.53;2.40;;;26.70;97.90;;;;;;5001428;28;20248;-53
2022/09/04 12:16:12;;;;;;;3.50;1.90;;;26.70;97.80;;;;;;5001702;28;20228;-54
2022/09/04 12:19:08;;;;;;;2.40;2.00;;;26.50;97.80;;;;;;5001171;28;20236;-54
2022/09/04 12:22:04;;;;;;;4.00;2.50;;;26.40;97.90;;;;;;4991793;28;20243;-53
2022/09/04 12:24:56;;;;;;;4.83;2.40;;;26.30;97.60;;;;;;4972057;28;20692;-52
2022/09/04 12:28:11;;;;;;;4.10;2.20;;;26.20;97.60;;;;;;4999626;28;20239;-52
2022/09/04 12:30:56;;;;;;;3.77;2.10;;;26.00;97.60;;;;;;4987804;28;20326;-52
2022/09/04 12:34:03;;;;;;;3.20;2.03;;;25.70;98.50;;;;;;5002522;28;20721;-53
2022/09/04 12:36:59;;;;;;;3.17;2.60;;;25.80;98.80;;;;;;5001237;28;20268;-54
2022/09/04 12:39:54;;;;;;;2.30;2.10;;;25.90;98.30;;;;;;4996930;28;20239;-52
2022/09/04 12:42:28;;;;;;;3.03;2.30;;;26.00;98.20;;;;;;5001378;28;20794;-52
2022/09/04 12:45:05;;;;;;;2.90;2.40;;;25.90;98.50;;;;;;5001784;28;20281;-54
2022/09/04 12:47:45;;;;;;;5.33;2.30;;;25.80;98.50;;;;;;4999762;28;20231;-53
2022/09/04 12:50:27;;;;;;;4.33;2.30;;;25.80;97.90;;;;;;4997299;28;20237;-53
2022/09/04 12:53:24;;;;;;;3.67;2.40;;;25.60;98.60;;;;;;4998019;28;20243;-54
2022/09/04 12:56:04;;;;;;;2.60;2.00;;;25.90;98.20;;;;;;4998260;28;20242;-54
2022/09/04 12:58:58;;;;;;;3.40;2.10;;;26.00;98.10;;;;;;4996597;28;20615;-54
2022/09/04 13:01:36;;;;;;;3.07;2.30;;;26.10;97.80;;;;;;5001042;28;20235;-53
2022/09/04 13:04:16;;;;;;;2.80;2.10;;;25.90;98.10;;;;;;5001249;28;21422;-53
2022/09/04 13:06:58;;;;;;;2.60;2.10;;;25.60;97.90;;;;;;4997772;28;20232;-54
2022/09/04 13:09:40;;;;;;;4.23;2.20;;;25.70;98.00;;;;;;4993906;28;20700;-53
2022/09/04 13:12:28;;;;;;;4.33;2.30;;;25.80;98.30;;;;;;4992538;28;20797;-54
2022/09/04 13:15:23;;;;;;;2.60;2.30;;;25.70;98.40;;;;;;4999490;28;20322;-55
2022/09/04 13:18:02;;;;;;;3.40;2.40;;;25.70;98.40;;;;;;4993556;28;20243;-54
2022/09/04 13:20:39;;;;;;;2.23;2.00;;;25.80;98.10;;;;;;4994297;28;20244;-54
2022/09/04 13:23:23;;;;;;;3.60;2.33;;;25.50;97.90;;;;;;4992632;28;20238;-54
2022/09/04 13:26:11;;;;;;;3.03;2.50;;;25.50;98.20;;;;;;5000677;28;20977;-54
2022/09/04 13:28:55;;;;;;;3.53;2.40;;;25.50;98.00;;;;;;4996835;28;20715;-54
2022/09/04 13:31:46;;;;;;;4.57;2.10;;;25.50;98.20;;;;;;4999705;28;20254;-53
2022/09/04 13:34:23;;;;;;;2.37;2.17;;;25.40;98.40;;;;;;5000533;28;20246;-54
2022/09/04 13:37:04;;;;;;;3.50;2.20;;;25.40;98.80;;;;;;5002877;28;20266;-54
2022/09/04 13:40:06;;;;;;;2.67;2.27;;;25.60;97.90;;;;;;4999453;28;20273;-53
2022/09/04 13:43:10;;;;;;;4.23;2.33;;;25.50;97.90;;;;;;4989164;28;20754;-54
2022/09/04 13:45:43;;;;;;;3.83;2.10;;;25.40;98.30;;;;;;4998564;28;20241;-53
2022/09/04 13:48:14;;;;;;;2.73;2.13;;;25.40;98.20;;;;;;4995405;28;20235;-53
2022/09/04 13:50:46;;;;;;;2.50;2.30;;;25.50;98.20;;;;;;4996543;28;20230;-53
2022/09/04 13:53:20;;;;;;;3.00;2.30;;;25.60;98.20;;;;;;4999293;28;20235;-54
2022/09/04 13:55:53;;;;;;;2.50;2.20;;;25.40;98.30;;;;;;5000393;28;20815;-54
2022/09/04 13:58:30;;;;;;;4.37;1.87;;;25.40;99.00;;;;;;4996375;28;20790;-52
2022/09/04 14:01:01;;;;;;;4.10;2.07;;;25.30;98.50;;;;;;5000396;28;20236;-52
2022/09/04 14:03:39;;;;;;;3.03;2.03;;;25.20;98.40;;;;;;5003491;28;20253;-53
2022/09/04 14:06:11;;;;;;;3.37;2.27;;;25.10;98.30;;;;;;4999854;28;20228;-53
2022/09/04 14:08:42;;;;;;;2.73;1.97;;;25.10;98.90;;;;;;5001285;28;20330;-53
2022/09/04 14:11:47;;;;;;;3.73;2.03;;;25.20;98.70;;;;;;5001613;28;21436;-52
2022/09/04 14:14:40;;;;;;;2.93;2.03;;;25.20;98.50;;;;;;4999809;28;20242;-52
2022/09/04 14:17:09;;;;;;;3.53;2.30;;;25.10;98.20;;;;;;5002954;28;20282;-52
2022/09/04 14:19:49;;;;;;;3.27;2.20;;;25.00;98.50;;;;;;5001597;28;21351;-53
2022/09/04 14:22:30;;;;;;;2.70;2.10;;;24.90;98.80;;;;;;5000370;28;20864;-53
2022/09/04 14:25:11;;;;;;;3.50;2.20;;;24.90;99.30;;;;;;5001082;28;20587;-52
2022/09/04 14:27:46;;;;;;;4.60;2.23;;;25.00;98.80;;;;;;5000591;28;20242;-52